OERK/RUH METAR and TAF weather

Enter ICAO airport designator
Station Type Date Time Source
OERK METAR 2020/12/05 05:00 UTC NOAA

OERK 050500Z 12005KT 7000 NSC 18/15 Q1019 NOSIG


Station Type Date Time Source
OERK Decoded METAR 2020/12/05 05:00 UTC NOAA

King Khaled International Airport, Saudi Arabia (OERK) 24-56N 046-43E 612M
Dec 05, 2020 - 12:00 AM EST / 2020.12.05 0500 UTC
Wind: from the ESE (120 degrees) at 6 MPH (5 KT):0
Visibility: 4 mile(s):0
Temperature: 64 F (18 C)
Dew Point: 59 F (15 C)
Relative Humidity: 82%
Pressure (altimeter): 30.09 in. Hg (1019 hPa)
ob: OERK 050500Z 12005KT 7000 NSC 18/15 Q1019 NOSIG
cycle: 5

Station Type Date Time Source
OERK TAF 2020/12/04 18:33 UTC NOAA

TAF OERK 041700Z 0418/0524 16008KT 6000 SCT040 SCT100
TEMPO 0500/0506 3000 BR
BECMG 0506/0508 14014KT

Example: see airport list